sensor_id;sensor_type;location;lat;lon;timestamp;P1;durP1;ratioP1;P2;durP2;ratioP2
22985;SDS011;11659;51.092;7.080;2022-09-09T00:00:11;1.40;;;1.20;;
22985;SDS011;11659;51.092;7.080;2022-09-09T00:02:38;1.80;;;1.30;;
22985;SDS011;11659;51.092;7.080;2022-09-09T00:05:09;1.53;;;1.10;;
22985;SDS011;11659;51.092;7.080;2022-09-09T00:07:46;1.73;;;1.10;;
22985;SDS011;11659;51.092;7.080;2022-09-09T00:10:16;1.23;;;0.90;;
22985;SDS011;11659;51.092;7.080;2022-09-09T00:12:51;0.87;;;0.80;;
22985;SDS011;11659;51.092;7.080;2022-09-09T00:15:23;2.47;;;1.00;;
22985;SDS011;11659;51.092;7.080;2022-09-09T00:17:56;1.10;;;1.00;;
22985;SDS011;11659;51.092;7.080;2022-09-09T00:20:28;1.40;;;1.00;;
22985;SDS011;11659;51.092;7.080;2022-09-09T00:22:59;1.10;;;1.00;;
22985;SDS011;11659;51.092;7.080;2022-09-09T00:25:32;0.90;;;0.90;;
22985;SDS011;11659;51.092;7.080;2022-09-09T00:28:08;1.87;;;0.80;;
22985;SDS011;11659;51.092;7.080;2022-09-09T00:30:42;1.20;;;1.00;;
22985;SDS011;11659;51.092;7.080;2022-09-09T00:33:10;1.93;;;1.00;;
22985;SDS011;11659;51.092;7.080;2022-09-09T00:35:41;1.00;;;1.00;;
22985;SDS011;11659;51.092;7.080;2022-09-09T00:38:10;1.43;;;0.90;;
22985;SDS011;11659;51.092;7.080;2022-09-09T00:40:41;2.33;;;1.07;;
22985;SDS011;11659;51.092;7.080;2022-09-09T00:43:19;1.53;;;1.10;;
22985;SDS011;11659;51.092;7.080;2022-09-09T00:48:52;1.60;;;0.97;;
22985;SDS011;11659;51.092;7.080;2022-09-09T00:51:27;1.30;;;1.10;;
22985;SDS011;11659;51.092;7.080;2022-09-09T00:57:07;0.87;;;0.60;;
22985;SDS011;11659;51.092;7.080;2022-09-09T00:59:47;1.03;;;0.93;;
22985;SDS011;11659;51.092;7.080;2022-09-09T01:02:19;2.00;;;1.30;;
22985;SDS011;11659;51.092;7.080;2022-09-09T01:04:52;2.27;;;1.07;;
22985;SDS011;11659;51.092;7.080;2022-09-09T01:07:19;4.70;;;1.63;;
22985;SDS011;11659;51.092;7.080;2022-09-09T01:09:50;2.17;;;1.27;;
22985;SDS011;11659;51.092;7.080;2022-09-09T01:12:23;3.03;;;1.20;;
22985;SDS011;11659;51.092;7.080;2022-09-09T01:14:58;1.20;;;0.93;;
22985;SDS011;11659;51.092;7.080;2022-09-09T01:17:31;2.23;;;1.27;;
22985;SDS011;11659;51.092;7.080;2022-09-09T01:20:10;2.47;;;1.07;;
22985;SDS011;11659;51.092;7.080;2022-09-09T01:22:50;3.50;;;1.00;;
22985;SDS011;11659;51.092;7.080;2022-09-09T01:28:30;2.07;;;1.30;;
22985;SDS011;11659;51.092;7.080;2022-09-09T01:31:04;1.70;;;1.00;;
22985;SDS011;11659;51.092;7.080;2022-09-09T01:33:39;2.03;;;0.90;;
22985;SDS011;11659;51.092;7.080;2022-09-09T01:36:06;1.53;;;0.83;;
22985;SDS011;11659;51.092;7.080;2022-09-09T01:38:42;1.60;;;1.00;;
22985;SDS011;11659;51.092;7.080;2022-09-09T01:41:10;1.07;;;0.97;;
22985;SDS011;11659;51.092;7.080;2022-09-09T01:43:56;1.20;;;0.90;;
22985;SDS011;11659;51.092;7.080;2022-09-09T01:46:23;1.37;;;0.90;;
22985;SDS011;11659;51.092;7.080;2022-09-09T01:48:50;1.97;;;0.90;;
22985;SDS011;11659;51.092;7.080;2022-09-09T01:51:18;1.17;;;0.90;;
22985;SDS011;11659;51.092;7.080;2022-09-09T01:53:44;0.90;;;0.60;;
22985;SDS011;11659;51.092;7.080;2022-09-09T01:56:16;2.20;;;1.10;;
22985;SDS011;11659;51.092;7.080;2022-09-09T01:58:58;2.03;;;0.83;;
22985;SDS011;11659;51.092;7.080;2022-09-09T02:01:34;1.50;;;0.80;;
22985;SDS011;11659;51.092;7.080;2022-09-09T02:04:15;1.30;;;0.77;;
22985;SDS011;11659;51.092;7.080;2022-09-09T02:06:49;1.13;;;0.87;;
22985;SDS011;11659;51.092;7.080;2022-09-09T02:09:24;1.00;;;0.83;;
22985;SDS011;11659;51.092;7.080;2022-09-09T02:11:55;1.33;;;0.80;;
22985;SDS011;11659;51.092;7.080;2022-09-09T02:14:38;1.57;;;1.00;;
22985;SDS011;11659;51.092;7.080;2022-09-09T02:17:08;1.63;;;1.10;;
22985;SDS011;11659;51.092;7.080;2022-09-09T02:19:55;1.87;;;1.07;;
22985;SDS011;11659;51.092;7.080;2022-09-09T02:22:39;2.87;;;1.07;;
22985;SDS011;11659;51.092;7.080;2022-09-09T02:25:10;1.33;;;1.10;;
22985;SDS011;11659;51.092;7.080;2022-09-09T02:27:40;1.57;;;0.90;;
22985;SDS011;11659;51.092;7.080;2022-09-09T02:30:09;1.33;;;0.90;;
22985;SDS011;11659;51.092;7.080;2022-09-09T02:32:41;2.30;;;1.20;;
22985;SDS011;11659;51.092;7.080;2022-09-09T02:35:12;1.63;;;1.20;;
22985;SDS011;11659;51.092;7.080;2022-09-09T02:37:42;2.47;;;1.00;;
22985;SDS011;11659;51.092;7.080;2022-09-09T02:40:12;0.90;;;0.70;;
22985;SDS011;11659;51.092;7.080;2022-09-09T02:42:45;1.43;;;0.80;;
22985;SDS011;11659;51.092;7.080;2022-09-09T02:45:14;1.90;;;1.13;;
22985;SDS011;11659;51.092;7.080;2022-09-09T02:47:47;1.83;;;0.97;;
22985;SDS011;11659;51.092;7.080;2022-09-09T02:50:19;2.03;;;1.10;;
22985;SDS011;11659;51.092;7.080;2022-09-09T02:52:52;1.73;;;0.90;;
22985;SDS011;11659;51.092;7.080;2022-09-09T02:55:29;1.70;;;1.13;;
22985;SDS011;11659;51.092;7.080;2022-09-09T02:58:07;2.50;;;0.90;;
22985;SDS011;11659;51.092;7.080;2022-09-09T03:00:36;0.90;;;0.90;;
22985;SDS011;11659;51.092;7.080;2022-09-09T03:03:03;1.63;;;1.10;;
22985;SDS011;11659;51.092;7.080;2022-09-09T03:05:30;2.20;;;1.10;;
22985;SDS011;11659;51.092;7.080;2022-09-09T03:07:57;2.10;;;1.20;;
22985;SDS011;11659;51.092;7.080;2022-09-09T03:10:23;1.73;;;1.30;;
22985;SDS011;11659;51.092;7.080;2022-09-09T03:12:49;1.90;;;1.00;;
22985;SDS011;11659;51.092;7.080;2022-09-09T03:15:18;1.97;;;1.00;;
22985;SDS011;11659;51.092;7.080;2022-09-09T03:17:44;1.60;;;0.90;;
22985;SDS011;11659;51.092;7.080;2022-09-09T03:20:10;2.10;;;1.00;;
22985;SDS011;11659;51.092;7.080;2022-09-09T03:22:37;1.90;;;1.00;;
22985;SDS011;11659;51.092;7.080;2022-09-09T03:25:04;2.67;;;1.20;;
22985;SDS011;11659;51.092;7.080;2022-09-09T03:27:32;2.87;;;1.23;;
22985;SDS011;11659;51.092;7.080;2022-09-09T03:29:59;2.63;;;1.10;;
22985;SDS011;11659;51.092;7.080;2022-09-09T03:32:30;1.00;;;0.90;;
22985;SDS011;11659;51.092;7.080;2022-09-09T03:34:57;1.57;;;0.90;;
22985;SDS011;11659;51.092;7.080;2022-09-09T03:37:23;1.50;;;0.90;;
22985;SDS011;11659;51.092;7.080;2022-09-09T03:39:50;1.80;;;1.30;;
22985;SDS011;11659;51.092;7.080;2022-09-09T03:42:17;2.10;;;1.10;;
22985;SDS011;11659;51.092;7.080;2022-09-09T03:44:44;2.73;;;1.17;;
22985;SDS011;11659;51.092;7.080;2022-09-09T03:47:12;1.93;;;1.13;;
22985;SDS011;11659;51.092;7.080;2022-09-09T03:49:40;2.23;;;1.10;;
22985;SDS011;11659;51.092;7.080;2022-09-09T03:52:06;1.90;;;1.20;;
22985;SDS011;11659;51.092;7.080;2022-09-09T03:54:33;1.73;;;1.07;;
22985;SDS011;11659;51.092;7.080;2022-09-09T03:56:59;2.70;;;1.13;;
22985;SDS011;11659;51.092;7.080;2022-09-09T03:59:25;2.17;;;1.00;;
22985;SDS011;11659;51.092;7.080;2022-09-09T04:01:51;1.47;;;1.00;;
22985;SDS011;11659;51.092;7.080;2022-09-09T04:04:17;2.17;;;1.00;;
22985;SDS011;11659;51.092;7.080;2022-09-09T04:06:46;2.63;;;1.17;;
22985;SDS011;11659;51.092;7.080;2022-09-09T04:09:16;2.23;;;1.03;;
22985;SDS011;11659;51.092;7.080;2022-09-09T04:11:42;1.40;;;1.20;;
22985;SDS011;11659;51.092;7.080;2022-09-09T04:14:08;2.77;;;1.30;;
22985;SDS011;11659;51.092;7.080;2022-09-09T04:16:34;2.83;;;1.20;;
22985;SDS011;11659;51.092;7.080;2022-09-09T04:19:02;2.47;;;1.27;;
22985;SDS011;11659;51.092;7.080;2022-09-09T04:21:29;1.57;;;1.30;;
22985;SDS011;11659;51.092;7.080;2022-09-09T04:23:56;2.77;;;1.20;;
22985;SDS011;11659;51.092;7.080;2022-09-09T04:26:24;1.23;;;1.13;;
22985;SDS011;11659;51.092;7.080;2022-09-09T04:28:50;1.37;;;1.07;;
22985;SDS011;11659;51.092;7.080;2022-09-09T04:31:18;1.43;;;1.00;;
22985;SDS011;11659;51.092;7.080;2022-09-09T04:33:47;2.60;;;1.33;;
22985;SDS011;11659;51.092;7.080;2022-09-09T04:36:15;1.47;;;1.07;;
22985;SDS011;11659;51.092;7.080;2022-09-09T04:38:41;2.53;;;1.10;;
22985;SDS011;11659;51.092;7.080;2022-09-09T04:41:08;2.10;;;1.10;;
22985;SDS011;11659;51.092;7.080;2022-09-09T04:43:37;1.57;;;1.20;;
22985;SDS011;11659;51.092;7.080;2022-09-09T04:46:06;2.10;;;1.20;;
22985;SDS011;11659;51.092;7.080;2022-09-09T04:48:32;3.27;;;1.40;;
22985;SDS011;11659;51.092;7.080;2022-09-09T04:51:00;2.03;;;1.10;;
22985;SDS011;11659;51.092;7.080;2022-09-09T04:53:29;2.47;;;1.27;;
22985;SDS011;11659;51.092;7.080;2022-09-09T04:56:01;3.63;;;1.20;;
22985;SDS011;11659;51.092;7.080;2022-09-09T04:58:30;2.90;;;1.17;;
22985;SDS011;11659;51.092;7.080;2022-09-09T05:01:02;2.83;;;1.30;;
22985;SDS011;11659;51.092;7.080;2022-09-09T05:03:31;1.90;;;1.20;;
22985;SDS011;11659;51.092;7.080;2022-09-09T05:06:02;3.83;;;1.30;;
22985;SDS011;11659;51.092;7.080;2022-09-09T05:08:30;1.60;;;1.10;;
22985;SDS011;11659;51.092;7.080;2022-09-09T05:10:56;3.33;;;1.20;;
22985;SDS011;11659;51.092;7.080;2022-09-09T05:13:22;1.63;;;1.30;;
22985;SDS011;11659;51.092;7.080;2022-09-09T05:15:52;1.60;;;1.20;;
22985;SDS011;11659;51.092;7.080;2022-09-09T05:18:18;2.13;;;0.90;;
22985;SDS011;11659;51.092;7.080;2022-09-09T05:20:44;2.13;;;1.20;;
22985;SDS011;11659;51.092;7.080;2022-09-09T05:23:10;2.83;;;1.30;;
22985;SDS011;11659;51.092;7.080;2022-09-09T05:25:39;2.60;;;1.20;;
22985;SDS011;11659;51.092;7.080;2022-09-09T05:28:08;2.23;;;1.17;;
22985;SDS011;11659;51.092;7.080;2022-09-09T05:30:36;4.00;;;1.50;;
22985;SDS011;11659;51.092;7.080;2022-09-09T05:33:06;1.83;;;1.20;;
22985;SDS011;11659;51.092;7.080;2022-09-09T05:35:32;3.03;;;1.50;;
22985;SDS011;11659;51.092;7.080;2022-09-09T05:37:59;3.33;;;1.30;;
22985;SDS011;11659;51.092;7.080;2022-09-09T05:40:26;3.73;;;1.03;;
22985;SDS011;11659;51.092;7.080;2022-09-09T05:42:52;2.47;;;1.30;;
22985;SDS011;11659;51.092;7.080;2022-09-09T05:45:18;2.10;;;1.20;;
22985;SDS011;11659;51.092;7.080;2022-09-09T05:47:45;1.63;;;0.97;;
22985;SDS011;11659;51.092;7.080;2022-09-09T05:50:20;3.97;;;1.50;;
22985;SDS011;11659;51.092;7.080;2022-09-09T05:52:45;2.47;;;1.40;;
22985;SDS011;11659;51.092;7.080;2022-09-09T05:55:13;3.43;;;1.60;;
22985;SDS011;11659;51.092;7.080;2022-09-09T05:57:39;4.57;;;1.57;;
22985;SDS011;11659;51.092;7.080;2022-09-09T06:00:05;3.93;;;1.33;;
22985;SDS011;11659;51.092;7.080;2022-09-09T06:02:39;4.17;;;1.40;;
22985;SDS011;11659;51.092;7.080;2022-09-09T06:05:07;2.10;;;1.43;;
22985;SDS011;11659;51.092;7.080;2022-09-09T06:07:35;2.67;;;1.20;;
22985;SDS011;11659;51.092;7.080;2022-09-09T06:10:01;2.43;;;1.20;;
22985;SDS011;11659;51.092;7.080;2022-09-09T06:12:29;2.23;;;1.20;;
22985;SDS011;11659;51.092;7.080;2022-09-09T06:14:55;1.67;;;1.17;;
22985;SDS011;11659;51.092;7.080;2022-09-09T06:17:22;3.27;;;1.37;;
22985;SDS011;11659;51.092;7.080;2022-09-09T06:19:49;2.20;;;1.30;;
22985;SDS011;11659;51.092;7.080;2022-09-09T06:22:16;3.43;;;1.50;;
22985;SDS011;11659;51.092;7.080;2022-09-09T06:24:43;1.87;;;1.40;;
22985;SDS011;11659;51.092;7.080;2022-09-09T06:27:10;3.53;;;1.47;;
22985;SDS011;11659;51.092;7.080;2022-09-09T06:29:36;2.77;;;1.23;;
22985;SDS011;11659;51.092;7.080;2022-09-09T06:32:02;1.97;;;1.10;;
22985;SDS011;11659;51.092;7.080;2022-09-09T06:34:28;1.67;;;1.17;;
22985;SDS011;11659;51.092;7.080;2022-09-09T06:36:56;2.30;;;1.20;;
22985;SDS011;11659;51.092;7.080;2022-09-09T06:39:23;2.13;;;1.40;;
22985;SDS011;11659;51.092;7.080;2022-09-09T06:41:50;1.80;;;1.10;;
22985;SDS011;11659;51.092;7.080;2022-09-09T06:44:53;2.17;;;1.43;;
22985;SDS011;11659;51.092;7.080;2022-09-09T06:47:35;5.50;;;1.30;;
22985;SDS011;11659;51.092;7.080;2022-09-09T06:50:02;1.60;;;1.10;;
22985;SDS011;11659;51.092;7.080;2022-09-09T06:52:32;3.23;;;1.20;;
22985;SDS011;11659;51.092;7.080;2022-09-09T06:55:00;3.07;;;1.20;;
22985;SDS011;11659;51.092;7.080;2022-09-09T06:57:27;3.10;;;1.30;;
22985;SDS011;11659;51.092;7.080;2022-09-09T06:59:53;4.23;;;1.30;;
22985;SDS011;11659;51.092;7.080;2022-09-09T07:02:19;3.00;;;1.50;;
22985;SDS011;11659;51.092;7.080;2022-09-09T07:04:46;1.77;;;1.30;;
22985;SDS011;11659;51.092;7.080;2022-09-09T07:07:12;2.07;;;1.27;;
22985;SDS011;11659;51.092;7.080;2022-09-09T07:09:41;3.57;;;1.40;;
22985;SDS011;11659;51.092;7.080;2022-09-09T07:12:07;2.53;;;1.00;;
22985;SDS011;11659;51.092;7.080;2022-09-09T07:14:37;2.40;;;1.40;;
22985;SDS011;11659;51.092;7.080;2022-09-09T07:17:05;2.80;;;1.20;;
22985;SDS011;11659;51.092;7.080;2022-09-09T07:19:35;1.97;;;1.00;;
22985;SDS011;11659;51.092;7.080;2022-09-09T07:22:03;3.00;;;1.30;;
22985;SDS011;11659;51.092;7.080;2022-09-09T07:24:30;1.50;;;1.00;;
22985;SDS011;11659;51.092;7.080;2022-09-09T07:26:56;3.23;;;1.63;;
22985;SDS011;11659;51.092;7.080;2022-09-09T07:29:22;2.50;;;1.20;;
22985;SDS011;11659;51.092;7.080;2022-09-09T07:31:51;2.47;;;1.10;;
22985;SDS011;11659;51.092;7.080;2022-09-09T07:34:22;2.07;;;1.30;;
22985;SDS011;11659;51.092;7.080;2022-09-09T07:36:48;2.77;;;1.20;;
22985;SDS011;11659;51.092;7.080;2022-09-09T07:39:15;3.53;;;1.37;;
22985;SDS011;11659;51.092;7.080;2022-09-09T07:41:48;3.70;;;1.30;;
22985;SDS011;11659;51.092;7.080;2022-09-09T07:44:17;2.70;;;1.10;;
22985;SDS011;11659;51.092;7.080;2022-09-09T07:46:48;2.93;;;0.97;;
22985;SDS011;11659;51.092;7.080;2022-09-09T07:49:20;2.10;;;1.10;;
22985;SDS011;11659;51.092;7.080;2022-09-09T07:51:46;4.37;;;1.20;;
22985;SDS011;11659;51.092;7.080;2022-09-09T07:54:15;2.70;;;1.27;;
22985;SDS011;11659;51.092;7.080;2022-09-09T07:56:46;2.40;;;0.90;;
22985;SDS011;11659;51.092;7.080;2022-09-09T07:59:12;2.47;;;1.20;;
22985;SDS011;11659;51.092;7.080;2022-09-09T08:01:41;2.47;;;1.00;;
22985;SDS011;11659;51.092;7.080;2022-09-09T08:04:11;2.50;;;1.30;;
22985;SDS011;11659;51.092;7.080;2022-09-09T08:06:43;3.57;;;1.20;;
22985;SDS011;11659;51.092;7.080;2022-09-09T08:09:13;2.80;;;1.40;;
22985;SDS011;11659;51.092;7.080;2022-09-09T08:11:41;2.87;;;1.20;;
22985;SDS011;11659;51.092;7.080;2022-09-09T08:14:09;4.33;;;1.20;;
22985;SDS011;11659;51.092;7.080;2022-09-09T08:16:37;4.70;;;1.40;;
22985;SDS011;11659;51.092;7.080;2022-09-09T08:19:04;3.20;;;1.40;;
22985;SDS011;11659;51.092;7.080;2022-09-09T08:21:34;3.37;;;1.20;;
22985;SDS011;11659;51.092;7.080;2022-09-09T08:24:03;3.07;;;1.10;;
22985;SDS011;11659;51.092;7.080;2022-09-09T08:26:34;2.00;;;0.90;;
22985;SDS011;11659;51.092;7.080;2022-09-09T08:29:02;2.80;;;1.37;;
22985;SDS011;11659;51.092;7.080;2022-09-09T08:31:31;1.93;;;1.00;;
22985;SDS011;11659;51.092;7.080;2022-09-09T08:33:59;1.87;;;0.87;;
22985;SDS011;11659;51.092;7.080;2022-09-09T08:36:27;3.00;;;1.17;;
22985;SDS011;11659;51.092;7.080;2022-09-09T08:38:56;3.40;;;1.30;;
22985;SDS011;11659;51.092;7.080;2022-09-09T08:41:32;3.10;;;1.27;;
22985;SDS011;11659;51.092;7.080;2022-09-09T08:44:10;3.00;;;0.90;;
22985;SDS011;11659;51.092;7.080;2022-09-09T08:46:46;2.83;;;1.20;;
22985;SDS011;11659;51.092;7.080;2022-09-09T08:49:34;3.47;;;1.30;;
22985;SDS011;11659;51.092;7.080;2022-09-09T08:52:12;2.97;;;1.10;;
22985;SDS011;11659;51.092;7.080;2022-09-09T08:54:44;2.73;;;1.23;;
22985;SDS011;11659;51.092;7.080;2022-09-09T08:57:14;2.27;;;1.00;;
22985;SDS011;11659;51.092;7.080;2022-09-09T08:59:43;1.47;;;0.80;;
22985;SDS011;11659;51.092;7.080;2022-09-09T09:02:13;2.57;;;1.20;;
22985;SDS011;11659;51.092;7.080;2022-09-09T09:04:49;4.60;;;1.10;;
22985;SDS011;11659;51.092;7.080;2022-09-09T09:07:27;1.93;;;0.93;;
22985;SDS011;11659;51.092;7.080;2022-09-09T09:10:04;1.37;;;0.70;;
22985;SDS011;11659;51.092;7.080;2022-09-09T09:12:41;2.90;;;0.97;;
22985;SDS011;11659;51.092;7.080;2022-09-09T09:15:14;2.47;;;0.80;;
22985;SDS011;11659;51.092;7.080;2022-09-09T09:17:44;2.37;;;1.10;;
22985;SDS011;11659;51.092;7.080;2022-09-09T09:20:11;1.77;;;0.97;;
22985;SDS011;11659;51.092;7.080;2022-09-09T09:22:43;1.40;;;0.77;;
22985;SDS011;11659;51.092;7.080;2022-09-09T09:25:15;2.90;;;1.07;;
22985;SDS011;11659;51.092;7.080;2022-09-09T09:27:48;4.23;;;1.13;;
22985;SDS011;11659;51.092;7.080;2022-09-09T09:30:23;3.53;;;0.97;;
22985;SDS011;11659;51.092;7.080;2022-09-09T09:32:54;2.07;;;1.00;;
22985;SDS011;11659;51.092;7.080;2022-09-09T09:35:34;2.33;;;1.00;;
22985;SDS011;11659;51.092;7.080;2022-09-09T09:38:00;2.83;;;1.10;;
22985;SDS011;11659;51.092;7.080;2022-09-09T09:40:29;1.77;;;0.80;;
22985;SDS011;11659;51.092;7.080;2022-09-09T09:42:57;0.90;;;0.50;;
22985;SDS011;11659;51.092;7.080;2022-09-09T09:45:29;1.13;;;0.70;;
22985;SDS011;11659;51.092;7.080;2022-09-09T09:48:02;1.77;;;0.83;;
22985;SDS011;11659;51.092;7.080;2022-09-09T09:50:31;2.80;;;0.80;;
22985;SDS011;11659;51.092;7.080;2022-09-09T09:52:59;1.63;;;0.87;;
22985;SDS011;11659;51.092;7.080;2022-09-09T09:55:29;2.20;;;0.97;;
22985;SDS011;11659;51.092;7.080;2022-09-09T09:58:03;1.80;;;1.00;;
22985;SDS011;11659;51.092;7.080;2022-09-09T10:00:31;2.23;;;0.90;;
22985;SDS011;11659;51.092;7.080;2022-09-09T10:03:12;2.30;;;0.87;;
22985;SDS011;11659;51.092;7.080;2022-09-09T10:05:45;2.37;;;0.87;;
22985;SDS011;11659;51.092;7.080;2022-09-09T10:08:13;1.97;;;0.73;;
22985;SDS011;11659;51.092;7.080;2022-09-09T10:10:47;1.93;;;0.80;;
22985;SDS011;11659;51.092;7.080;2022-09-09T10:13:27;2.43;;;0.80;;
22985;SDS011;11659;51.092;7.080;2022-09-09T10:16:01;1.90;;;0.83;;
22985;SDS011;11659;51.092;7.080;2022-09-09T10:18:45;1.93;;;0.80;;
22985;SDS011;11659;51.092;7.080;2022-09-09T10:21:27;3.67;;;0.90;;
22985;SDS011;11659;51.092;7.080;2022-09-09T10:24:11;1.43;;;0.63;;
22985;SDS011;11659;51.092;7.080;2022-09-09T10:26:49;1.57;;;0.77;;
22985;SDS011;11659;51.092;7.080;2022-09-09T10:29:29;2.17;;;1.00;;
22985;SDS011;11659;51.092;7.080;2022-09-09T10:32:29;2.60;;;0.80;;
22985;SDS011;11659;51.092;7.080;2022-09-09T10:35:04;1.97;;;0.83;;
22985;SDS011;11659;51.092;7.080;2022-09-09T10:37:46;1.97;;;0.93;;
22985;SDS011;11659;51.092;7.080;2022-09-09T10:40:28;1.73;;;1.10;;
22985;SDS011;11659;51.092;7.080;2022-09-09T10:43:00;2.23;;;1.00;;
22985;SDS011;11659;51.092;7.080;2022-09-09T10:45:37;2.33;;;0.70;;
22985;SDS011;11659;51.092;7.080;2022-09-09T10:48:16;1.67;;;0.47;;
22985;SDS011;11659;51.092;7.080;2022-09-09T10:50:54;1.40;;;0.90;;
22985;SDS011;11659;51.092;7.080;2022-09-09T10:53:31;3.30;;;0.90;;
22985;SDS011;11659;51.092;7.080;2022-09-09T10:56:03;1.70;;;0.77;;
22985;SDS011;11659;51.092;7.080;2022-09-09T10:58:33;2.53;;;1.00;;
22985;SDS011;11659;51.092;7.080;2022-09-09T11:01:09;1.60;;;0.80;;
22985;SDS011;11659;51.092;7.080;2022-09-09T11:03:41;4.03;;;0.90;;
22985;SDS011;11659;51.092;7.080;2022-09-09T11:06:19;1.40;;;0.80;;
22985;SDS011;11659;51.092;7.080;2022-09-09T11:08:48;1.63;;;0.70;;
22985;SDS011;11659;51.092;7.080;2022-09-09T11:11:17;1.87;;;0.63;;
22985;SDS011;11659;51.092;7.080;2022-09-09T11:13:48;1.30;;;0.80;;
22985;SDS011;11659;51.092;7.080;2022-09-09T11:16:24;0.93;;;0.80;;
22985;SDS011;11659;51.092;7.080;2022-09-09T11:18:55;1.73;;;0.70;;
22985;SDS011;11659;51.092;7.080;2022-09-09T11:21:25;2.07;;;0.73;;
22985;SDS011;11659;51.092;7.080;2022-09-09T11:23:56;2.70;;;0.93;;
22985;SDS011;11659;51.092;7.080;2022-09-09T11:26:28;2.13;;;0.97;;
22985;SDS011;11659;51.092;7.080;2022-09-09T11:29:01;1.87;;;0.67;;
22985;SDS011;11659;51.092;7.080;2022-09-09T11:31:46;2.23;;;0.63;;
22985;SDS011;11659;51.092;7.080;2022-09-09T11:34:25;2.13;;;0.73;;
22985;SDS011;11659;51.092;7.080;2022-09-09T11:37:08;2.43;;;1.00;;
22985;SDS011;11659;51.092;7.080;2022-09-09T11:42:44;1.70;;;0.70;;
22985;SDS011;11659;51.092;7.080;2022-09-09T11:45:19;1.33;;;0.67;;
22985;SDS011;11659;51.092;7.080;2022-09-09T11:47:54;2.30;;;0.70;;
22985;SDS011;11659;51.092;7.080;2022-09-09T11:50:28;2.30;;;0.60;;
22985;SDS011;11659;51.092;7.080;2022-09-09T11:53:04;1.53;;;0.80;;
22985;SDS011;11659;51.092;7.080;2022-09-09T11:55:42;1.50;;;0.60;;
22985;SDS011;11659;51.092;7.080;2022-09-09T11:58:14;1.47;;;0.70;;
22985;SDS011;11659;51.092;7.080;2022-09-09T12:00:43;1.33;;;0.60;;
22985;SDS011;11659;51.092;7.080;2022-09-09T12:03:31;1.30;;;0.60;;
22985;SDS011;11659;51.092;7.080;2022-09-09T12:06:11;1.43;;;0.60;;
22985;SDS011;11659;51.092;7.080;2022-09-09T12:08:41;2.00;;;0.70;;
22985;SDS011;11659;51.092;7.080;2022-09-09T12:11:10;1.87;;;0.70;;
22985;SDS011;11659;51.092;7.080;2022-09-09T12:13:36;2.33;;;0.70;;
22985;SDS011;11659;51.092;7.080;2022-09-09T12:16:02;1.77;;;1.00;;
22985;SDS011;11659;51.092;7.080;2022-09-09T12:18:33;1.60;;;0.87;;
22985;SDS011;11659;51.092;7.080;2022-09-09T12:21:03;2.17;;;0.73;;
22985;SDS011;11659;51.092;7.080;2022-09-09T12:23:40;1.93;;;0.70;;
22985;SDS011;11659;51.092;7.080;2022-09-09T12:26:20;1.80;;;0.70;;
22985;SDS011;11659;51.092;7.080;2022-09-09T12:28:55;2.50;;;0.97;;
22985;SDS011;11659;51.092;7.080;2022-09-09T12:31:30;0.80;;;0.60;;
22985;SDS011;11659;51.092;7.080;2022-09-09T12:34:10;1.17;;;0.60;;
22985;SDS011;11659;51.092;7.080;2022-09-09T12:36:39;1.30;;;0.60;;
22985;SDS011;11659;51.092;7.080;2022-09-09T12:39:14;0.43;;;0.43;;
22985;SDS011;11659;51.092;7.080;2022-09-09T12:41:50;1.60;;;0.90;;
22985;SDS011;11659;51.092;7.080;2022-09-09T12:44:22;1.93;;;0.80;;
22985;SDS011;11659;51.092;7.080;2022-09-09T12:46:49;1.47;;;0.80;;
22985;SDS011;11659;51.092;7.080;2022-09-09T12:49:28;1.00;;;0.50;;
22985;SDS011;11659;51.092;7.080;2022-09-09T12:52:00;2.10;;;0.97;;
22985;SDS011;11659;51.092;7.080;2022-09-09T12:54:28;2.70;;;0.90;;
22985;SDS011;11659;51.092;7.080;2022-09-09T12:56:54;1.50;;;0.80;;
22985;SDS011;11659;51.092;7.080;2022-09-09T12:59:22;1.30;;;0.80;;
22985;SDS011;11659;51.092;7.080;2022-09-09T13:01:55;1.17;;;0.63;;
22985;SDS011;11659;51.092;7.080;2022-09-09T13:04:21;1.67;;;0.80;;
22985;SDS011;11659;51.092;7.080;2022-09-09T13:06:49;1.80;;;0.70;;
22985;SDS011;11659;51.092;7.080;2022-09-09T13:09:15;2.50;;;0.80;;
22985;SDS011;11659;51.092;7.080;2022-09-09T13:11:41;1.87;;;0.70;;
22985;SDS011;11659;51.092;7.080;2022-09-09T13:14:12;2.43;;;1.00;;
22985;SDS011;11659;51.092;7.080;2022-09-09T13:16:53;4.57;;;1.20;;
22985;SDS011;11659;51.092;7.080;2022-09-09T13:19:21;1.27;;;0.77;;
22985;SDS011;11659;51.092;7.080;2022-09-09T13:21:52;1.80;;;0.73;;
22985;SDS011;11659;51.092;7.080;2022-09-09T13:24:24;2.13;;;1.30;;
22985;SDS011;11659;51.092;7.080;2022-09-09T13:26:55;2.13;;;1.03;;
22985;SDS011;11659;51.092;7.080;2022-09-09T13:29:21;0.90;;;0.50;;
22985;SDS011;11659;51.092;7.080;2022-09-09T13:31:47;2.53;;;0.70;;
22985;SDS011;11659;51.092;7.080;2022-09-09T13:34:25;1.10;;;0.80;;
22985;SDS011;11659;51.092;7.080;2022-09-09T13:36:54;1.97;;;0.90;;
22985;SDS011;11659;51.092;7.080;2022-09-09T13:39:24;1.57;;;0.70;;
22985;SDS011;11659;51.092;7.080;2022-09-09T13:41:50;0.90;;;0.70;;
22985;SDS011;11659;51.092;7.080;2022-09-09T13:44:19;1.30;;;0.60;;
22985;SDS011;11659;51.092;7.080;2022-09-09T13:46:58;1.43;;;0.77;;
22985;SDS011;11659;51.092;7.080;2022-09-09T13:49:26;1.43;;;0.77;;
22985;SDS011;11659;51.092;7.080;2022-09-09T13:52:03;1.93;;;0.80;;
22985;SDS011;11659;51.092;7.080;2022-09-09T13:54:31;1.20;;;0.73;;
22985;SDS011;11659;51.092;7.080;2022-09-09T13:56:57;3.33;;;0.90;;
22985;SDS011;11659;51.092;7.080;2022-09-09T13:59:23;2.53;;;1.20;;
22985;SDS011;11659;51.092;7.080;2022-09-09T14:01:49;2.90;;;1.37;;
22985;SDS011;11659;51.092;7.080;2022-09-09T14:04:17;2.97;;;1.30;;
22985;SDS011;11659;51.092;7.080;2022-09-09T14:06:45;2.40;;;1.10;;
22985;SDS011;11659;51.092;7.080;2022-09-09T14:09:14;2.17;;;1.27;;
22985;SDS011;11659;51.092;7.080;2022-09-09T14:11:41;4.60;;;2.20;;
22985;SDS011;11659;51.092;7.080;2022-09-09T14:14:08;3.97;;;2.20;;
22985;SDS011;11659;51.092;7.080;2022-09-09T14:16:34;4.00;;;2.13;;
22985;SDS011;11659;51.092;7.080;2022-09-09T14:19:00;4.23;;;2.03;;
22985;SDS011;11659;51.092;7.080;2022-09-09T14:21:27;1.70;;;1.40;;
22985;SDS011;11659;51.092;7.080;2022-09-09T14:23:53;3.50;;;1.50;;
22985;SDS011;11659;51.092;7.080;2022-09-09T14:26:20;1.83;;;1.20;;
22985;SDS011;11659;51.092;7.080;2022-09-09T14:28:47;2.37;;;1.50;;
22985;SDS011;11659;51.092;7.080;2022-09-09T14:31:14;1.87;;;1.30;;
22985;SDS011;11659;51.092;7.080;2022-09-09T14:33:41;1.57;;;1.33;;
22985;SDS011;11659;51.092;7.080;2022-09-09T14:36:07;2.70;;;1.50;;
22985;SDS011;11659;51.092;7.080;2022-09-09T14:38:33;2.53;;;1.80;;
22985;SDS011;11659;51.092;7.080;2022-09-09T14:41:04;3.07;;;1.83;;
22985;SDS011;11659;51.092;7.080;2022-09-09T14:43:32;2.23;;;1.57;;
22985;SDS011;11659;51.092;7.080;2022-09-09T14:46:04;1.73;;;1.50;;
22985;SDS011;11659;51.092;7.080;2022-09-09T14:48:30;2.43;;;1.50;;
22985;SDS011;11659;51.092;7.080;2022-09-09T14:50:57;3.47;;;1.70;;
22985;SDS011;11659;51.092;7.080;2022-09-09T14:53:29;3.00;;;1.40;;
22985;SDS011;11659;51.092;7.080;2022-09-09T14:56:02;2.13;;;1.63;;
22985;SDS011;11659;51.092;7.080;2022-09-09T14:58:30;2.27;;;1.77;;
22985;SDS011;11659;51.092;7.080;2022-09-09T15:01:01;4.07;;;1.80;;
22985;SDS011;11659;51.092;7.080;2022-09-09T15:03:28;3.13;;;1.70;;
22985;SDS011;11659;51.092;7.080;2022-09-09T15:05:54;2.40;;;1.70;;
22985;SDS011;11659;51.092;7.080;2022-09-09T15:08:19;3.87;;;1.50;;
22985;SDS011;11659;51.092;7.080;2022-09-09T15:10:45;3.33;;;1.80;;
22985;SDS011;11659;51.092;7.080;2022-09-09T15:13:12;4.30;;;1.53;;
22985;SDS011;11659;51.092;7.080;2022-09-09T15:15:43;1.77;;;1.67;;
22985;SDS011;11659;51.092;7.080;2022-09-09T15:18:09;2.37;;;1.43;;
22985;SDS011;11659;51.092;7.080;2022-09-09T15:20:35;2.67;;;1.50;;